Time;durP1;ratioP1;P1;durP2;ratioP2;P2;SDS_P1;SDS_P2;PMS_P1;PMS_P2;Temp;Humidity;BMP_temperature;BMP_pressure;BME280_temperature;BME280_humidity;BME280_pressure;Samples;Min_cycle;Max_cycle;Signal;HPM_P1;HPM_P2
2021/10/11 00:01:01;;;;;;;2.88;1.83;;;;;;;9.53;74.03;98798.31;6289763;22;20019;-95
2021/10/11 00:03:28;;;;;;;1.92;1.60;;;;;;;9.54;74.08;98793.88;6291785;22;20042;-95
2021/10/11 00:05:54;;;;;;;1.98;1.63;;;;;;;9.51;73.99;98797.47;6292828;22;20039;-96
2021/10/11 00:08:21;;;;;;;3.22;1.85;;;;;;;9.53;72.96;98800.97;6293408;22;20071;-95
2021/10/11 00:10:51;;;;;;;2.03;1.60;;;;;;;9.57;72.95;98807.09;6292643;22;20073;-96
2021/10/11 00:13:18;;;;;;;1.98;1.42;;;;;;;9.59;71.50;98799.97;6290081;22;20091;-96
2021/10/11 00:15:44;;;;;;;1.83;1.60;;;;;;;9.55;71.89;98796.50;6292359;22;20019;-94
2021/10/11 00:18:11;;;;;;;3.72;1.60;;;;;;;9.61;71.93;98795.50;6291856;22;20023;-95
2021/10/11 00:20:38;;;;;;;2.15;1.50;;;;;;;9.66;71.97;98807.75;6290159;22;20019;-95
2021/10/11 00:23:04;;;;;;;1.98;1.58;;;;;;;9.63;71.40;98799.00;6290767;22;20039;-95
2021/10/11 00:25:30;;;;;;;2.45;1.60;;;;;;;9.73;71.38;98824.41;6292471;22;20020;-95
2021/10/11 00:27:58;;;;;;;3.20;1.67;;;;;;;9.63;71.13;98805.19;6290742;22;20026;-96
2021/10/11 00:30:24;;;;;;;2.78;1.90;;;;;;;9.65;71.51;98797.19;6289032;22;20022;-95
2021/10/11 00:32:50;;;;;;;4.82;1.63;;;;;;;9.81;71.43;98833.09;6289365;22;20035;-95
2021/10/11 00:35:18;;;;;;;1.85;1.50;;;;;;;9.77;70.52;98807.50;6291155;22;20020;-96
2021/10/11 00:37:44;;;;;;;2.97;1.60;;;;;;;9.74;70.63;98799.63;6292045;22;20491;-96
2021/10/11 00:40:11;;;;;;;2.42;1.55;;;;;;;9.85;69.97;98808.22;6290757;22;20079;-95
2021/10/11 00:42:37;;;;;;;1.73;1.52;;;;;;;9.75;70.68;98796.03;6293088;22;20012;-95
2021/10/11 00:45:05;;;;;;;3.80;1.63;;;;;;;9.75;71.47;98803.16;6292407;22;20020;-96
2021/10/11 00:47:31;;;;;;;2.45;1.58;;;;;;;9.85;70.92;98815.31;6288953;22;20020;-92
2021/10/11 00:49:57;;;;;;;2.78;1.67;;;;;;;9.77;71.21;98799.53;6289767;22;20038;-95
2021/10/11 00:52:25;;;;;;;3.30;1.80;;;;;;;9.81;71.03;98803.00;6289937;22;20472;-95
2021/10/11 00:54:52;;;;;;;3.25;1.60;;;;;;;9.72;71.70;98795.25;6289679;22;20088;-95
2021/10/11 00:57:18;;;;;;;2.08;1.50;;;;;;;9.76;71.38;98796.91;6289571;22;20022;-94
2021/10/11 00:59:44;;;;;;;3.05;1.40;;;;;;;9.63;71.81;98788.38;6288126;22;20019;-94
2021/10/11 01:02:10;;;;;;;2.85;1.50;;;;;;;9.75;72.56;98793.38;6288645;22;20019;-95
2021/10/11 01:04:39;;;;;;;2.95;1.58;;;;;;;9.60;73.23;98769.84;6288596;22;20012;-95
2021/10/11 01:07:05;;;;;;;3.13;1.65;;;;;;;9.63;72.97;98762.69;6290172;22;20454;-96
2021/10/11 01:09:33;;;;;;;2.00;1.50;;;;;;;9.83;73.26;98807.38;6290898;22;20103;-94
2021/10/11 01:12:00;;;;;;;4.80;1.83;;;;;;;9.58;73.44;98767.22;6289725;22;20042;-95
2021/10/11 01:14:26;;;;;;;1.95;1.60;;;;;;;9.76;73.62;98788.94;6291408;22;20012;-94
2021/10/11 01:16:52;;;;;;;4.40;1.80;;;;;;;9.61;73.33;98753.03;6292684;22;20024;-96
2021/10/11 01:19:19;;;;;;;2.47;1.80;;;;;;;9.59;73.05;98762.81;6289848;22;20026;-95
2021/10/11 01:21:49;;;;;;;2.92;1.63;;;;;;;9.78;72.90;98784.47;6292711;22;20491;-96
2021/10/11 01:24:15;;;;;;;2.97;1.60;;;;;;;9.63;73.06;98761.84;6286388;22;20469;-94
2021/10/11 01:26:43;;;;;;;4.20;1.95;;;;;;;9.64;73.47;98756.47;6287392;22;20015;-95
2021/10/11 01:29:15;;;;;;;2.40;1.52;;;;;;;9.72;73.84;98771.38;6288081;22;20020;-96
2021/10/11 01:31:42;;;;;;;4.93;1.77;;;;;;;9.59;73.98;98747.75;6287570;22;20019;-94
2021/10/11 01:34:08;;;;;;;5.72;1.50;;;;;;;9.56;75.20;98747.78;6287286;22;20019;-95
2021/10/11 01:36:35;;;;;;;4.38;1.63;;;;;;;9.56;77.64;98755.75;6287000;22;20051;-94
2021/10/11 01:39:06;;;;;;;2.83;1.60;;;;;;;9.62;77.05;98760.06;6286799;22;20042;-95
2021/10/11 01:41:32;;;;;;;3.03;1.98;;;;;;;9.59;79.06;98758.38;6285011;22;20019;-93
2021/10/11 01:43:58;;;;;;;2.67;1.70;;;;;;;9.41;77.77;98749.06;6283533;22;20042;-95
2021/10/11 01:46:24;;;;;;;2.50;1.52;;;;;;;9.45;77.44;98750.72;6282088;22;20438;-94
2021/10/11 01:48:50;;;;;;;3.72;1.50;;;;;;;9.58;79.90;98764.56;6281698;22;20016;-95
2021/10/11 01:51:16;;;;;;;4.10;1.55;;;;;;;9.50;77.76;98752.38;6281660;22;20042;-95
2021/10/11 01:53:41;;;;;;;3.35;1.75;;;;;;;9.49;78.00;98767.44;6281621;22;20012;-94
2021/10/11 01:56:09;;;;;;;3.45;1.60;;;;;;;9.47;79.63;98763.94;6281949;22;20070;-94
2021/10/11 01:58:35;;;;;;;1.95;1.52;;;;;;;9.31;79.06;98746.63;6282122;22;20347;-96
2021/10/11 02:01:00;;;;;;;1.85;1.40;;;;;;;9.34;76.68;98751.88;6282733;22;20039;-94
2021/10/11 02:03:27;;;;;;;3.63;1.90;;;;;;;9.39;76.79;98761.47;6282910;22;20039;-94
2021/10/11 02:05:53;;;;;;;3.63;1.50;;;;;;;9.22;77.13;98740.63;6282318;22;20061;-94
2021/10/11 02:08:20;;;;;;;2.17;1.65;;;;;;;9.28;76.14;98741.38;6283214;22;20020;-95
2021/10/11 02:10:46;;;;;;;4.65;1.50;;;;;;;9.41;75.78;98737.53;6282020;22;20022;-96
2021/10/11 02:13:13;;;;;;;2.30;1.40;;;;;;;9.46;75.72;98763.09;6287318;22;20099;-96
2021/10/11 02:15:40;;;;;;;4.32;1.33;;;;;;;9.49;74.89;98758.59;6286462;22;20023;-95
2021/10/11 02:18:06;;;;;;;5.55;1.77;;;;;;;9.42;75.35;98744.59;6286552;22;20050;-95
2021/10/11 02:20:32;;;;;;;2.85;1.60;;;;;;;9.47;73.94;98748.03;6285031;22;20020;-95
2021/10/11 02:22:58;;;;;;;3.80;1.52;;;;;;;9.50;73.72;98741.75;6285682;22;20020;-96
2021/10/11 02:25:24;;;;;;;4.15;1.52;;;;;;;9.58;74.48;98745.97;6286611;22;20075;-94
2021/10/11 02:27:50;;;;;;;2.90;1.50;;;;;;;9.45;74.26;98725.94;6286947;22;20015;-95
2021/10/11 02:30:17;;;;;;;4.30;1.70;;;;;;;9.60;73.07;98744.16;6286182;22;20027;-95
2021/10/11 02:32:44;;;;;;;3.13;1.33;;;;;;;9.47;72.83;98716.16;6286951;22;20043;-95
2021/10/11 02:35:21;;;;;;;5.63;1.55;;;;;;;9.43;72.44;98714.50;6289039;22;20075;-95
2021/10/11 02:37:48;;;;;;;5.93;1.50;;;;;;;9.49;71.91;98722.31;6286893;22;20016;-93
2021/10/11 02:40:14;;;;;;;2.55;1.50;;;;;;;9.48;71.70;98702.00;6287839;22;20022;-94
2021/10/11 02:42:39;;;;;;;3.13;1.33;;;;;;;9.55;71.61;98714.22;6289217;22;20023;-94
2021/10/11 02:45:06;;;;;;;4.75;1.50;;;;;;;9.65;71.69;98714.88;6286432;22;20103;-96
2021/10/11 02:47:34;;;;;;;2.97;1.27;;;;;;;9.67;71.22;98723.66;6286022;22;20461;-95
2021/10/11 02:50:00;;;;;;;3.85;1.40;;;;;;;9.63;70.40;98709.59;6288369;22;20016;-95
2021/10/11 02:52:28;;;;;;;8.77;1.58;;;;;;;9.62;71.16;98707.84;6288685;22;20062;-96
2021/10/11 02:54:57;;;;;;;4.13;1.67;;;;;;;9.84;71.16;98750.66;6285703;22;20018;-96
2021/10/11 02:57:23;;;;;;;2.00;1.43;;;;;;;9.64;71.97;98716.63;6287887;22;20071;-95
2021/10/11 02:59:49;;;;;;;4.82;1.60;;;;;;;9.60;73.93;98722.94;6287387;22;20042;-95
2021/10/11 03:02:15;;;;;;;3.50;1.58;;;;;;;9.57;76.17;98733.63;6285414;22;20024;-95
2021/10/11 03:04:42;;;;;;;4.07;1.80;;;;;;;9.57;77.06;98741.59;6283621;22;20015;-94
2021/10/11 03:07:09;;;;;;;5.05;1.60;;;;;;;9.49;78.83;98727.63;6280272;22;20016;-93
2021/10/11 03:09:34;;;;;;;3.53;1.75;;;;;;;9.48;80.14;98739.16;6281718;22;20454;-93
2021/10/11 03:12:00;;;;;;;5.95;1.75;;;;;;;9.36;82.10;98734.13;6283155;22;20016;-96
2021/10/11 03:14:27;;;;;;;2.58;1.48;;;;;;;9.30;81.85;98739.56;6283397;22;20023;-95
2021/10/11 03:16:53;;;;;;;4.93;1.95;;;;;;;8.96;82.15;98714.66;6283759;22;20023;-96
2021/10/11 03:19:19;;;;;;;3.20;1.73;;;;;;;9.01;82.87;98727.81;6284564;22;20054;-94
2021/10/11 03:21:46;;;;;;;3.85;2.00;;;;;;;8.99;83.38;98732.28;6284866;22;20020;-95
2021/10/11 03:24:12;;;;;;;5.68;2.17;;;;;;;8.89;83.89;98712.16;6285408;22;20016;-96
2021/10/11 03:26:38;;;;;;;7.18;2.17;;;;;;;8.87;84.29;98703.34;6285629;22;20377;-94
2021/10/11 03:29:04;;;;;;;5.35;2.20;;;;;;;8.93;83.85;98703.22;6285902;22;20094;-95
2021/10/11 03:31:30;;;;;;;4.82;2.15;;;;;;;8.88;85.43;98706.00;6285821;22;20377;-95
2021/10/11 03:33:56;;;;;;;4.80;1.90;;;;;;;8.95;85.22;98715.56;6286099;22;20016;-94
2021/10/11 03:36:22;;;;;;;3.92;2.00;;;;;;;8.97;85.14;98710.22;6286986;22;20016;-94
2021/10/11 03:38:50;;;;;;;3.30;1.95;;;;;;;8.90;85.32;98704.19;6285599;22;20043;-95
2021/10/11 03:41:16;;;;;;;4.22;2.10;;;;;;;8.90;85.66;98701.53;6286589;22;20016;-95
2021/10/11 03:43:43;;;;;;;3.95;2.42;;;;;;;8.87;85.02;98698.06;6286761;22;20098;-95
2021/10/11 03:46:09;;;;;;;3.63;2.00;;;;;;;8.88;85.49;98697.16;6286727;22;20016;-94
2021/10/11 03:48:35;;;;;;;3.38;2.03;;;;;;;8.95;85.42;98715.56;6287937;22;20521;-96
2021/10/11 03:51:02;;;;;;;5.18;1.88;;;;;;;8.91;83.66;98703.25;6286496;22;20043;-93
2021/10/11 03:53:28;;;;;;;5.55;2.47;;;;;;;8.96;84.43;98703.19;6286871;22;20498;-95
2021/10/11 03:55:55;;;;;;;5.82;1.88;;;;;;;9.07;84.59;98709.13;6286115;22;20019;-94
2021/10/11 03:58:21;;;;;;;5.43;2.00;;;;;;;9.03;84.89;98694.19;6286866;22;20023;-94
2021/10/11 04:00:47;;;;;;;4.47;2.00;;;;;;;9.04;85.10;98678.25;6287932;22;20012;-96
2021/10/11 04:03:14;;;;;;;6.22;2.50;;;;;;;9.08;82.67;98681.69;6285969;22;20038;-94
2021/10/11 04:05:40;;;;;;;4.30;1.80;;;;;;;9.30;77.92;98695.31;6285672;22;20026;-95
2021/10/11 04:11:11;;;;;;;3.80;1.58;;;;;;;9.55;73.49;98689.47;5121495;27;20380;-95
2021/10/11 04:13:38;;;;;;;4.18;1.92;;;;;;;9.58;73.51;98684.91;5121038;28;20052;-95
2021/10/11 04:16:05;;;;;;;4.30;1.80;;;;;;;9.69;72.86;98695.28;5119453;28;20568;-95
2021/10/11 04:18:31;;;;;;;7.80;1.92;;;;;;;9.69;72.36;98687.31;5119501;28;20040;-93
2021/10/11 04:20:57;;;;;;;4.53;1.80;;;;;;;9.75;74.11;98702.22;5122258;28;20083;-96
2021/10/11 04:23:23;;;;;;;3.22;1.50;;;;;;;9.59;74.41;98693.78;5119314;28;20048;-95
2021/10/11 04:25:57;;;;;;;3.70;1.83;;;;;;;9.71;74.83;98716.50;5120945;28;20050;-95
2021/10/11 04:28:25;;;;;;;5.40;1.77;;;;;;;9.79;74.26;98720.69;5121069;28;20048;-95
2021/10/11 04:30:52;;;;;;;5.72;1.85;;;;;;;9.63;75.75;98712.25;5119658;28;20051;-94
2021/10/11 04:33:18;;;;;;;3.75;1.77;;;;;;;9.60;77.02;98722.06;5119753;28;20118;-95
2021/10/11 04:35:45;;;;;;;4.32;1.88;;;;;;;9.52;77.02;98735.53;5121355;28;20075;-95
2021/10/11 04:38:12;;;;;;;3.65;1.70;;;;;;;9.47;79.15;98716.16;5121618;28;20051;-95
2021/10/11 04:40:38;;;;;;;4.63;1.92;;;;;;;9.45;79.84;98715.31;5121461;28;20127;-96
2021/10/11 04:43:04;;;;;;;3.83;2.45;;;;;;;9.41;81.13;98703.94;5121104;28;20052;-94
2021/10/11 04:45:33;;;;;;;5.57;2.25;;;;;;;9.36;81.89;98692.53;5121395;28;20036;-95
2021/10/11 04:48:03;;;;;;;4.07;2.22;;;;;;;9.37;82.60;98701.38;5119703;28;20044;-95
2021/10/11 04:50:31;;;;;;;4.38;1.92;;;;;;;9.46;83.34;98727.72;5121197;28;20040;-95
2021/10/11 04:52:57;;;;;;;5.72;2.20;;;;;;;9.34;82.90;98717.38;5118838;28;20044;-95
2021/10/11 04:55:23;;;;;;;5.43;2.28;;;;;;;9.23;83.46;98725.56;5119809;28;20097;-95
2021/10/11 04:57:50;;;;;;;4.28;2.25;;;;;;;9.11;84.70;98715.22;5121400;28;20047;-94
2021/10/11 05:00:17;;;;;;;5.25;2.20;;;;;;;9.15;85.12;98722.19;5122730;28;20111;-95
2021/10/11 05:02:46;;;;;;;5.40;2.20;;;;;;;9.07;85.00;98706.47;5121971;28;20051;-94
2021/10/11 05:05:13;;;;;;;3.20;1.80;;;;;;;9.08;82.80;98707.34;5124066;28;20054;-95
2021/10/11 05:07:40;;;;;;;4.70;1.92;;;;;;;9.16;79.72;98693.00;5123763;28;20066;-96
2021/10/11 05:10:06;;;;;;;3.53;1.70;;;;;;;9.23;79.90;98709.66;5123145;28;20048;-96
2021/10/11 05:12:38;;;;;;;2.58;1.63;;;;;;;9.25;80.02;98710.50;5120512;28;20082;-95
2021/10/11 05:35:17;;;;;;;9.23;2.50;;;;;;;9.60;79.71;98757.44;6228023;22;1480780;-95
2021/10/11 05:37:45;;;;;;;52.92;15.15;;;;;;;9.41;81.65;98727.81;6293823;22;20069;-95
2021/10/11 05:40:11;;;;;;;55.85;18.63;;;;;;;9.41;82.41;98722.50;6295449;22;20019;-95
2021/10/11 05:42:37;;;;;;;34.13;13.73;;;;;;;9.41;82.70;98737.53;6298591;22;20157;-95
2021/10/11 05:45:06;;;;;;;21.98;8.88;;;;;;;9.39;83.19;98737.59;6303395;22;20102;-95
2021/10/11 05:47:32;;;;;;;9.30;3.77;;;;;;;9.38;83.31;98730.53;6301551;22;20042;-96
2021/10/11 05:50:02;;;;;;;10.05;5.03;;;;;;;9.43;83.85;98749.00;6299266;22;20050;-96
2021/10/11 05:52:30;;;;;;;7.50;3.47;;;;;;;9.35;84.26;98740.34;6298305;22;20019;-95
2021/10/11 05:54:56;;;;;;;5.65;2.90;;;;;;;9.32;84.63;98748.38;6303776;22;20027;-96
2021/10/11 05:57:22;;;;;;;5.35;2.75;;;;;;;9.28;84.56;98739.59;6300554;22;20024;-96
2021/10/11 05:59:49;;;;;;;6.38;2.70;;;;;;;9.45;83.89;98765.75;6300290;22;20038;-95
2021/10/11 06:02:17;;;;;;;1.75;1.63;;;;;;;9.34;83.50;98744.78;6302135;22;20019;-96
2021/10/11 06:04:49;;;;;;;3.97;2.00;;;;;;;9.53;80.97;98760.28;6303279;22;20046;-95
2021/10/11 06:07:16;;;;;;;2.63;1.90;;;;;;;9.44;81.55;98741.00;6301064;22;20019;-95
2021/10/11 06:09:44;;;;;;;3.97;2.35;;;;;;;9.49;82.53;98742.69;6302506;22;20020;-95
2021/10/11 06:12:14;;;;;;;4.20;2.20;;;;;;;9.51;81.39;98743.53;6303560;22;20513;-94
2021/10/11 06:14:41;;;;;;;5.45;2.70;;;;;;;9.53;81.23;98747.03;6300660;22;20011;-95
2021/10/11 06:17:07;;;;;;;2.13;1.48;;;;;;;9.65;78.16;98770.63;6266789;23;20020;-94
2021/10/11 06:19:33;;;;;;;1.67;1.38;;;;;;;9.51;77.82;98747.03;6263409;23;20044;-93
2021/10/11 06:21:58;;;;;;;3.13;1.65;;;;;;;9.51;80.68;98765.63;6262315;23;20023;-94
2021/10/11 06:25:03;;;;;;;1.95;1.42;;;;;;;9.54;82.42;98791.22;6266821;23;20015;-96
2021/10/11 06:27:37;;;;;;;1.50;1.40;;;;;;;9.40;80.39;98767.66;6267824;23;20079;-95
2021/10/11 06:30:06;;;;;;;2.35;1.30;;;;;;;9.48;82.49;98792.25;6262061;23;20091;-95
2021/10/11 06:32:33;;;;;;;2.97;1.58;;;;;;;9.27;84.89;98755.56;6255770;23;20469;-93
2021/10/11 06:34:59;;;;;;;3.03;1.70;;;;;;;9.31;85.87;98779.34;6277700;22;20438;-92
2021/10/11 06:37:24;;;;;;;2.03;1.55;;;;;;;9.38;89.02;98793.34;6282113;22;20022;-93
2021/10/11 06:39:50;;;;;;;3.60;1.48;;;;;;;9.24;89.10;98798.97;6283520;22;20022;-92
2021/10/11 06:42:20;;;;;;;2.88;1.50;;;;;;;9.12;89.37;98778.84;6283674;22;20018;-93
2021/10/11 06:44:48;;;;;;;2.20;1.85;;;;;;;9.28;90.10;98805.06;6285885;22;20077;-96
2021/10/11 06:47:14;;;;;;;4.20;1.80;;;;;;;9.35;90.31;98817.31;6288876;22;20015;-94
2021/10/11 06:49:42;;;;;;;2.35;1.55;;;;;;;9.27;90.29;98804.19;6284325;22;20069;-95
2021/10/11 06:52:08;;;;;;;1.98;1.40;;;;;;;9.22;89.75;98801.66;6282823;22;20012;-95
2021/10/11 06:54:34;;;;;;;2.78;1.90;;;;;;;9.39;89.74;98829.59;6284768;22;20016;-94
2021/10/11 06:57:00;;;;;;;2.50;1.60;;;;;;;9.29;90.45;98812.13;6282006;22;20338;-96
2021/10/11 06:59:26;;;;;;;2.45;1.70;;;;;;;9.48;90.89;98840.03;6283272;22;20029;-94
2021/10/11 07:01:53;;;;;;;3.35;1.80;;;;;;;9.45;89.61;98816.19;6286824;22;20016;-93
2021/10/11 07:04:21;;;;;;;4.60;1.90;;;;;;;9.41;89.78;98817.16;6284145;22;20026;-94
2021/10/11 07:06:47;;;;;;;3.42;1.90;;;;;;;9.52;89.19;98824.88;6284921;22;20403;-94
2021/10/11 07:09:13;;;;;;;3.40;2.00;;;;;;;9.58;89.33;98824.75;6283364;22;20015;-94
2021/10/11 07:11:39;;;;;;;2.67;1.80;;;;;;;9.65;88.00;98821.94;6284197;22;20019;-96
2021/10/11 07:14:05;;;;;;;4.85;1.90;;;;;;;9.71;87.01;98812.94;6283933;22;20047;-95
2021/10/11 07:16:32;;;;;;;2.17;1.50;;;;;;;9.97;86.83;98846.00;6291055;22;20016;-96
2021/10/11 07:18:59;;;;;;;2.65;1.38;;;;;;;9.94;77.80;98817.75;6288409;22;20090;-95
2021/10/11 07:21:25;;;;;;;7.20;2.55;;;;;;;10.10;79.60;98822.69;6284974;22;20070;-96
2021/10/11 07:23:51;;;;;;;3.72;1.88;;;;;;;10.20;78.58;98814.44;6289879;22;20099;-94
2021/10/11 07:26:17;;;;;;;3.20;1.55;;;;;;;10.27;78.04;98844.41;6289177;22;20015;-94
2021/10/11 07:28:44;;;;;;;2.78;1.50;;;;;;;10.16;76.51;98815.44;6289963;22;20101;-95
2021/10/11 07:31:10;;;;;;;4.47;1.60;;;;;;;10.30;77.40;98824.88;6291427;22;20019;-94
2021/10/11 07:33:36;;;;;;;1.85;1.50;;;;;;;10.53;76.29;98856.22;6289155;22;20046;-95
2021/10/11 07:36:04;;;;;;;2.17;1.50;;;;;;;10.45;77.61;98843.09;6291328;22;20339;-96
2021/10/11 07:38:31;;;;;;;1.70;1.50;;;;;;;10.44;75.83;98828.94;6288162;22;20015;-95
2021/10/11 07:40:57;;;;;;;2.38;1.70;;;;;;;10.49;75.11;98844.75;6288814;22;20016;-93
2021/10/11 07:43:24;;;;;;;3.53;1.60;;;;;;;10.35;75.48;98846.91;6287169;22;20011;-95
2021/10/11 07:45:50;;;;;;;3.20;1.60;;;;;;;10.37;76.73;98842.44;6288924;22;20023;-94
2021/10/11 07:48:16;;;;;;;2.72;1.65;;;;;;;10.22;76.71;98835.69;6289656;22;20024;-95
2021/10/11 07:50:42;;;;;;;4.30;1.58;;;;;;;10.28;77.35;98847.03;6286704;22;20012;-93
2021/10/11 07:53:09;;;;;;;2.58;1.85;;;;;;;10.33;75.97;98854.06;6286479;22;20026;-93
2021/10/11 07:55:36;;;;;;;2.35;1.55;;;;;;;10.23;74.24;98854.22;6287780;22;20026;-94
2021/10/11 07:58:02;;;;;;;2.22;1.55;;;;;;;10.40;73.89;98853.84;6287227;22;20075;-95
2021/10/11 08:00:28;;;;;;;4.47;1.63;;;;;;;10.32;73.89;98839.88;6287369;22;20023;-95
2021/10/11 08:02:54;;;;;;;1.80;1.50;;;;;;;10.32;73.77;98841.66;6288854;22;20019;-94
2021/10/11 08:05:20;;;;;;;3.75;1.52;;;;;;;10.23;73.13;98856.88;6287203;22;20061;-94
2021/10/11 08:07:46;;;;;;;3.17;1.77;;;;;;;10.23;74.02;98851.56;6288407;22;20454;-95
2021/10/11 08:10:16;;;;;;;2.35;1.40;;;;;;;10.29;73.77;98863.88;6287155;22;20019;-95
2021/10/11 08:12:42;;;;;;;2.45;1.70;;;;;;;10.43;73.45;98887.44;6287782;22;20099;-95
2021/10/11 08:15:08;;;;;;;1.80;1.40;;;;;;;10.50;73.63;98897.03;6286859;22;20015;-91
2021/10/11 08:17:35;;;;;;;3.08;1.70;;;;;;;10.55;72.73;98876.53;6287641;22;20019;-95
2021/10/11 08:20:06;;;;;;;2.72;1.80;;;;;;;10.63;72.66;98869.22;6288046;22;20020;-96
2021/10/11 08:22:38;;;;;;;2.22;1.50;;;;;;;10.67;73.36;98864.72;6281717;22;20446;-95
2021/10/11 08:25:26;;;;;;;2.85;1.80;;;;;;;10.60;71.62;98861.31;6285874;22;20019;-95
2021/10/11 08:27:53;;;;;;;2.22;1.65;;;;;;;10.69;71.83;98854.88;6287097;22;20020;-95
2021/10/11 08:30:19;;;;;;;2.90;1.90;;;;;;;10.94;74.83;98871.06;6282942;22;20026;-94
2021/10/11 08:32:45;;;;;;;2.60;1.80;;;;;;;11.10;71.94;98859.13;6281227;22;20098;-94
2021/10/11 08:35:11;;;;;;;3.38;1.77;;;;;;;11.23;72.50;98875.63;6285392;22;20027;-95
2021/10/11 08:37:37;;;;;;;2.58;1.70;;;;;;;11.47;68.74;98890.00;6283580;22;20015;-94
2021/10/11 08:40:04;;;;;;;2.97;1.70;;;;;;;11.68;70.77;98895.63;6287963;22;20345;-96
2021/10/11 08:42:34;;;;;;;2.80;1.80;;;;;;;11.50;68.70;98870.41;6287994;22;20046;-95
2021/10/11 08:45:01;;;;;;;1.88;1.70;;;;;;;11.37;67.78;98871.69;6285543;22;20304;-95
2021/10/11 08:47:27;;;;;;;3.22;1.70;;;;;;;11.40;68.82;98863.59;6287751;22;20024;-95
2021/10/11 08:49:53;;;;;;;2.60;1.80;;;;;;;11.47;69.17;98860.72;6286485;22;20062;-95
2021/10/11 08:55:22;;;;;;;5.05;1.80;;;;;;;11.50;70.19;98905.03;5102238;27;20393;-95
2021/10/11 08:57:59;;;;;;;3.17;1.73;;;;;;;11.12;70.17;98869.69;5099335;28;20379;-96
2021/10/11 09:00:25;;;;;;;2.33;1.75;;;;;;;10.96;71.31;98881.69;5102725;28;20041;-94
2021/10/11 09:02:53;;;;;;;2.28;1.73;;;;;;;10.86;70.54;98886.38;5101722;28;20401;-96
2021/10/11 09:05:23;;;;;;;2.85;1.73;;;;;;;10.90;70.23;98901.34;5103886;28;20048;-95
2021/10/11 09:07:59;;;;;;;2.40;1.80;;;;;;;10.82;71.73;98895.34;5103194;28;20051;-95
2021/10/11 09:10:27;;;;;;;4.63;2.15;;;;;;;10.86;71.53;98913.88;5102886;28;20044;-94
2021/10/11 09:12:54;;;;;;;2.45;1.92;;;;;;;10.82;71.29;98900.66;5102240;28;20502;-95
2021/10/11 09:15:20;;;;;;;4.35;3.08;;;;;;;10.82;71.37;98908.63;5102243;28;20497;-95
2021/10/11 09:17:53;;;;;;;3.50;1.80;;;;;;;10.97;72.03;98896.72;5105490;28;20048;-94
2021/10/11 09:20:39;;;;;;;4.57;2.20;;;;;;;11.01;70.50;98899.25;5100877;28;20044;-96
2021/10/11 09:23:20;;;;;;;3.22;2.25;;;;;;;11.24;70.51;98889.78;5106074;28;20127;-95
2021/10/11 09:25:48;;;;;;;3.83;2.60;;;;;;;11.44;69.43;98894.53;5119697;28;20044;-95
2021/10/11 09:28:19;;;;;;;3.60;2.15;;;;;;;11.46;69.81;98925.53;5127021;28;20043;-96
2021/10/11 09:30:48;;;;;;;3.90;2.30;;;;;;;11.27;68.88;98892.34;5126718;28;20043;-95
2021/10/11 09:33:23;;;;;;;4.28;2.40;;;;;;;11.19;69.46;98897.00;5125632;28;20040;-96
2021/10/11 09:35:53;;;;;;;3.58;2.22;;;;;;;11.36;69.52;98934.69;5126504;28;20043;-96
2021/10/11 09:38:23;;;;;;;4.80;2.10;;;;;;;11.44;69.32;98908.72;5126982;28;20047;-96
2021/10/11 09:44:13;;;;;;;4.18;2.60;;;;;;;11.68;68.03;98912.47;5126380;28;20024;-95
2021/10/11 09:46:44;;;;;;;5.50;2.30;;;;;;;11.66;67.96;98908.97;5124850;28;20040;-96
2021/10/11 10:00:46;;;;;;;3.35;2.30;;;;;;;12.80;65.04;98948.13;5114001;22;20052;-96
2021/10/11 10:03:21;;;;;;;6.55;2.55;;;;;;;12.74;65.98;98916.31;5088582;28;20041;-96
2021/10/11 10:05:55;;;;;;;4.03;2.20;;;;;;;12.82;64.26;98903.59;5079919;28;20064;-96
2021/10/11 10:08:30;;;;;;;4.15;2.38;;;;;;;13.05;63.05;98907.25;5074473;28;20041;-96
2021/10/11 10:11:00;;;;;;;3.25;2.00;;;;;;;13.12;62.29;98917.69;5073522;28;20534;-96
2021/10/11 10:16:59;;;;;;;4.50;2.40;;;;;;;12.24;65.29;98902.84;5168393;27;20447;-96
2021/10/11 10:19:36;;;;;;;5.72;2.20;;;;;;;12.34;65.61;98909.63;5168459;27;20066;-96
2021/10/11 10:22:17;;;;;;;4.25;2.47;;;;;;;12.41;65.85;98928.97;5169403;27;20034;-96
2021/10/11 10:24:46;;;;;;;3.55;2.55;;;;;;;12.18;65.69;98933.22;5163733;27;20043;-96
2021/10/11 10:27:14;;;;;;;3.80;2.50;;;;;;;11.93;66.14;98943.78;5165001;27;20043;-95
2021/10/11 10:29:42;;;;;;;4.18;2.10;;;;;;;11.86;66.90;98911.06;5167205;27;20098;-95
2021/10/11 10:32:11;;;;;;;4.10;2.50;;;;;;;12.09;66.32;98945.03;5167443;27;20047;-95
2021/10/11 10:34:41;;;;;;;3.40;2.38;;;;;;;11.69;66.80;98922.22;5165143;27;20130;-95
2021/10/11 10:37:13;;;;;;;4.90;2.80;;;;;;;11.46;67.24;98911.34;5160866;27;20126;-96
2021/10/11 10:39:41;;;;;;;4.50;2.50;;;;;;;11.58;66.49;98940.31;5162475;27;20047;-95
2021/10/11 10:42:19;;;;;;;4.15;2.60;;;;;;;11.54;66.90;98913.78;5163138;27;20071;-94
2021/10/11 10:44:46;;;;;;;4.15;2.85;;;;;;;11.56;67.42;98907.53;5161616;27;20039;-96
2021/10/11 10:47:15;;;;;;;5.40;2.60;;;;;;;11.67;66.42;98901.88;5161318;27;20049;-94
2021/10/11 10:49:44;;;;;;;3.80;2.70;;;;;;;11.78;66.76;98906.91;5161827;27;20038;-95
2021/10/11 10:52:15;;;;;;;5.15;3.00;;;;;;;11.78;66.89;98909.56;5163910;27;20047;-94
2021/10/11 10:54:45;;;;;;;6.43;3.80;;;;;;;11.71;66.63;98928.38;5162638;27;20118;-96
2021/10/11 11:00:17;;;;;;;6.57;3.47;;;;;;;11.88;65.03;98906.59;5163900;27;20378;-95
2021/10/11 11:02:45;;;;;;;6.10;2.95;;;;;;;11.89;65.54;98936.78;5163885;27;20051;-94
2021/10/11 11:05:12;;;;;;;6.53;3.53;;;;;;;11.81;64.93;98920.97;5161164;27;20043;-94
2021/10/11 11:07:39;;;;;;;5.03;3.35;;;;;;;11.73;65.53;98909.66;5159800;27;20050;-95
2021/10/11 11:10:22;;;;;;;6.50;3.95;;;;;;;11.64;65.48;98902.81;5159453;27;20047;-94
2021/10/11 11:12:53;;;;;;;5.47;3.10;;;;;;;11.99;65.58;98903.63;5159911;27;20039;-95
2021/10/11 11:15:27;;;;;;;4.75;3.22;;;;;;;12.06;64.83;98910.50;5159200;27;20046;-94
2021/10/11 11:17:54;;;;;;;6.82;3.38;;;;;;;12.23;64.28;98906.41;5160811;27;20107;-95
2021/10/11 11:20:24;;;;;;;6.20;3.55;;;;;;;12.16;64.55;98931.53;5159963;27;20373;-94
2021/10/11 11:22:53;;;;;;;5.32;3.55;;;;;;;12.04;65.32;98911.47;5159441;27;20043;-95
2021/10/11 11:25:29;;;;;;;6.75;2.78;;;;;;;12.27;63.80;98935.63;5158915;27;20042;-96
2021/10/11 11:28:02;;;;;;;7.07;3.40;;;;;;;12.15;64.37;98913.81;5162025;27;20035;-95
2021/10/11 11:30:31;;;;;;;6.70;3.30;;;;;;;12.11;66.33;98921.00;5161233;27;20046;-95
2021/10/11 11:33:02;;;;;;;10.52;5.93;;;;;;;11.71;67.96;98920.38;5160704;27;20119;-94
2021/10/11 11:35:31;;;;;;;9.93;5.68;;;;;;;11.72;68.44;98935.44;5160582;27;20038;-95
2021/10/11 11:37:59;;;;;;;7.25;4.15;;;;;;;11.60;67.48;98930.50;5158544;27;20061;-94
2021/10/11 11:40:28;;;;;;;6.57;3.80;;;;;;;11.57;67.40;98927.88;5159078;27;20051;-95
2021/10/11 11:42:55;;;;;;;9.65;4.60;;;;;;;11.62;67.19;98927.75;5157877;27;20043;-94
2021/10/11 11:45:23;;;;;;;7.20;4.70;;;;;;;12.09;66.46;98942.38;5157372;27;20046;-94
2021/10/11 11:48:02;;;;;;;7.00;4.50;;;;;;;12.52;64.33;98929.50;5157620;27;20042;-95
2021/10/11 11:50:28;;;;;;;8.68;4.03;;;;;;;12.63;64.40;98907.81;5158636;27;20043;-96
2021/10/11 11:53:02;;;;;;;6.97;4.20;;;;;;;12.57;65.57;98924.00;5156652;27;20050;-95
2021/10/11 11:55:29;;;;;;;10.00;5.00;;;;;;;12.39;65.81;98904.16;5159548;27;20050;-94
2021/10/11 11:57:57;;;;;;;8.10;5.15;;;;;;;12.24;64.56;98908.16;5157545;27;20043;-96
2021/10/11 12:00:24;;;;;;;7.15;4.40;;;;;;;12.13;64.20;98898.72;5157316;27;20528;-95
2021/10/11 12:02:53;;;;;;;7.20;4.50;;;;;;;12.43;64.91;98896.00;5156721;27;20103;-94
2021/10/11 12:05:23;;;;;;;7.78;5.00;;;;;;;12.21;64.19;98885.16;5157344;27;20095;-94
2021/10/11 12:07:49;;;;;;;9.45;4.75;;;;;;;12.48;64.00;98871.84;5156629;27;20074;-95
2021/10/11 12:10:20;;;;;;;6.18;4.03;;;;;;;12.54;65.30;98877.84;5150536;27;20108;-93
2021/10/11 12:12:48;;;;;;;8.77;4.75;;;;;;;12.33;65.42;98867.88;5144469;27;20046;-93
2021/10/11 12:15:19;;;;;;;7.60;4.20;;;;;;;12.58;65.33;98867.06;5141772;27;20050;-93
2021/10/11 12:17:45;;;;;;;10.18;5.32;;;;;;;12.43;65.27;98874.66;5144083;27;20036;-95
2021/10/11 12:20:14;;;;;;;8.55;4.97;;;;;;;12.43;63.82;98868.47;5144549;27;20054;-95
2021/10/11 12:22:40;;;;;;;10.18;6.30;;;;;;;12.54;64.18;98880.50;5144140;27;20071;-96
2021/10/11 12:25:09;;;;;;;14.57;8.10;;;;;;;12.35;63.53;98886.50;5145760;27;20110;-95
2021/10/11 12:27:35;;;;;;;9.93;5.47;;;;;;;12.46;64.19;98879.00;5141892;27;20039;-94
2021/10/11 12:30:07;;;;;;;10.60;5.65;;;;;;;12.58;63.52;98888.38;5143509;27;20035;-94